16 Dec 2018 11:24 CST 2018350+11:24 CST

Overview Datums Bench Marks Data Query Site Visit Daily QC Messages Attributes

079: SALT08

27° 52' 14" N   97° 31' 3" W
SALT08
City of Corpus Christi Salinity Monitoring Salinity

Station Information

SALT08
SALT08
more pictures
 
Station Name:SALT08
DNR ID:079
Location:27° 52' 14" N, 97° 31' 3" W

Water Level Forecasts

Latest Observations

Series Metric English Marine Observed at
Water Temperature 12.3 °C 54.1 °F 54.1 °F Dec 16 05:12 CST
00h07m ago
Salinity 4.400 psu 4.400 psu 4.400 psu Dec 16 05:12 CST
00h07m ago

Maps

SALT08
All Stations in Area
Entire Network
 

Recent Observations

Date/Time Water
Temp (°F)
Sal (psu)
Dec 16 05:00 CST 54.3 4.400
Dec 16 04:00 CST 54.7 4.400
Dec 16 03:00 CST 54.9 4.500
Dec 16 02:00 CST 55.2 4.500
Dec 16 01:00 CST 55.4 4.600
Dec 16 00:00 CST 55.6 4.700
Dec 15 23:00 CST 55.8 4.800
Dec 15 22:00 CST 55.8 4.900
Dec 15 21:00 CST 55.6 4.600
Dec 15 20:00 CST 55.8 4.500
Dec 15 19:00 CST 55.8 4.500
Dec 15 18:00 CST 55.8 4.400
Dec 15 17:00 CST 56.3 4.200
Dec 15 16:00 CST 56.3 4.100
Dec 15 15:00 CST 56.3 4.000
Dec 15 14:00 CST 55.6 3.900
Dec 15 13:00 CST 54.7 3.900
Dec 15 12:00 CST 53.2 3.900
Dec 15 11:00 CST 52.0 4.000
Dec 15 10:00 CST 51.1 4.100
Dec 15 09:00 CST 50.4 4.100
Dec 15 08:00 CST 50.4 4.000
Dec 15 07:00 CST 50.7 4.000
Dec 15 06:00 CST 51.3 4.000
Dec 15 05:00 CST 51.6 4.000

Historical Data Availability